Latest Weather Observations for Braidwood

IDN60901

Issued at 7:41 pm EST Wednesday 12 August 2020 (issued every 10 minutes, with the page automatically refreshed every 10 minutes)

About weather observations | Map of Canberra area stations | Latest observations for Canberra area | Other Formats
Station Details ID: 069132 Name: BRAIDWOOD RACECOURSE AWS Lat: -35.43 Lon: 149.78 Height: 665.2 m
Data from the previous 72 hours. | See also: Recent months at Braidwood
Date/Time
EST
Temp
°C
App
Temp
°C
Dew
Point
°C
Rel
Hum
%
Delta-T
°C
Wind Press
QNH
hPa
Press
MSL
hPa
Rain since
9am
mm
Dir  Spd
km/h
Gust
km/h
Spd
kts
Gust
kts
12/07:30pm 8.7 6.9 7.0 89 0.8 NNW 6 11 3 6 1012.9 1013.6 0.2
12/07:00pm 8.9 7.0 6.9 87 1.0 NNW 6 7 3 4 1012.9 1013.6 0.0
12/06:30pm 8.9 6.9 6.3 84 1.2 NNW 6 11 3 6 1012.6 1013.2 0.0
12/06:00pm 9.4 7.3 6.5 82 1.4 NW 7 15 4 8 1012.3 1013.0 0.0
12/05:30pm 10.1 7.9 6.3 77 1.8 NNW 7 13 4 7 1012.3 1013.0 0.0
12/05:00pm 10.8 8.7 6.0 72 2.3 NW 6 9 3 5 1012.0 1012.7 0.0
12/04:30pm 11.3 9.0 5.6 68 2.7 NW 7 13 4 7 1011.9 1012.6 0.0
12/04:00pm 11.4 8.7 5.5 67 2.8 NW 9 17 5 9 1011.8 1012.5 0.0
12/03:30pm 11.1 7.2 5.4 68 2.7 WNW 15 20 8 11 1011.9 1012.6 0.0
12/03:00pm 11.6 7.0 5.5 66 2.9 WNW 19 26 10 14 1012.1 1012.8 0.0
12/02:30pm 11.8 7.6 5.7 66 2.9 WNW 17 26 9 14 1012.1 1012.8 0.0
12/02:00pm 12.1 7.8 5.3 63 3.3 NW 17 24 9 13 1012.2 1012.9 0.0
12/01:30pm 12.2 7.2 4.7 60 3.6 WNW 20 32 11 17 1012.3 1013.0 0.0
12/01:00pm 12.8 8.6 5.7 62 3.5 WNW 17 26 9 14 1012.7 1013.3 0.0
12/12:30pm 12.4 6.8 5.3 62 3.4 NW 24 35 13 19 1013.2 1013.9 0.0
12/12:00pm 11.7 6.8 5.3 65 3.1 NW 20 35 11 19 1013.8 1014.5 0.0
12/11:30am 11.7 9.6 6.8 72 2.4 NNW 7 17 4 9 1014.4 1015.1 0.0
12/11:00am 10.2 7.9 5.6 73 2.2 NNW 7 13 4 7 1015.0 1015.7 0.0
12/10:30am 9.8 8.1 6.0 77 1.8 N 4 7 2 4 1015.3 1016.0 0.0
12/10:00am 9.2 7.4 7.0 86 1.1 N 6 9 3 5 1015.6 1016.4 0.0
12/09:30am 8.3 6.8 6.6 89 0.8 N 4 9 2 5 1015.6 1016.4 0.0
12/09:00am 6.7 5.0 5.7 93 0.5 NNW 4 6 2 3 1015.9 1016.6 0.0
12/08:30am 5.7 3.8 4.7 93 0.4 NNW 4 6 2 3 1015.9 1016.6 0.0
12/08:00am 4.7 3.3 3.8 94 0.4 CALM 0 0 0 0 1015.5 1016.3 0.0
12/07:30am 3.5 1.9 2.6 94 0.4 CALM 0 4 0 2 1015.4 1016.2 0.0
12/07:00am 3.4 1.1 2.5 94 0.4 N 4 6 2 3 1015.5 1016.3 0.0
12/06:30am 3.2 0.8 2.3 94 0.4 N 4 7 2 4 1015.5 1016.3 0.0
12/06:00am 3.2 1.2 2.5 95 0.3 NNW 2 6 1 3 1015.3 1016.0 0.0
12/05:30am 2.5 0.0 1.8 95 0.3 N 4 6 2 3 1015.4 1016.2 0.0
12/05:00am 2.5 0.0 1.8 95 0.3 N 4 6 2 3 1015.4 1016.2 0.0
12/04:30am 2.0 -0.2 1.1 94 0.4 NNW 2 6 1 3 1015.5 1016.3 0.0
12/04:00am 2.1 -0.1 1.2 94 0.4 N 2 4 1 2 1015.5 1016.3 0.0
12/03:30am 2.4 0.3 1.5 94 0.4 N 2 4 1 2 1015.5 1016.3 0.0
12/03:00am 2.5 0.4 1.6 94 0.4 NNW 2 4 1 2 1015.6 1016.4 0.0
12/02:30am 2.5 0.4 1.6 94 0.4 NNW 2 6 1 3 1016.0 1016.7 0.0
12/02:00am 2.3 0.5 1.3 93 0.4 CALM 0 0 0 0 1016.5 1017.2 0.0
12/01:30am 2.6 0.5 1.6 93 0.4 NNW 2 4 1 2 1017.0 1017.8 0.0
12/01:00am 3.0 0.6 2.1 94 0.4 N 4 6 2 3 1017.0 1017.8 0.0
12/12:30am 2.8 1.1 1.8 93 0.4 CALM 0 4 0 2 1017.5 1018.2 0.0
12/12:00am 3.1 1.1 2.1 93 0.4 N 2 6 1 3 1017.4 1018.1 0.0
 
Date/Time
EST
Temp
°C
App
Temp
°C
Dew
Point
°C
Rel
Hum
%
Delta-T
°C
Wind Press
QNH
hPa
Press
MSL
hPa
Rain since
9am
mm
Dir  Spd
km/h
Gust
km/h
Spd
kts
Gust
kts
11/11:30pm 3.0 1.3 2.0 93 0.4 CALM 0 0 0 0 1017.2 1018.0 0.0
11/11:00pm 2.7 1.0 1.7 93 0.4 CALM 0 0 0 0 1017.0 1017.8 0.0
11/10:30pm 2.4 0.6 1.2 92 0.5 CALM 0 0 0 0 1017.4 1018.1 0.0
11/10:00pm 2.2 0.3 0.7 90 0.6 CALM 0 0 0 0 1017.5 1018.2 0.0
11/09:30pm 3.5 1.9 2.2 91 0.5 CALM 0 0 0 0 1017.6 1018.3 0.0
11/09:00pm 3.2 1.4 1.3 87 0.8 CALM 0 0 0 0 1017.8 1018.5 0.0
11/08:30pm 4.3 2.3 2.3 87 0.8 NNW 2 4 1 2 1018.0 1018.8 0.0
11/08:00pm 4.7 2.3 2.1 83 1.1 NW 4 7 2 4 1018.3 1019.1 0.0
11/07:30pm 5.5 2.7 2.0 78 1.5 NW 6 9 3 5 1018.2 1019.0 0.0
11/07:00pm 6.5 3.4 3.5 81 1.3 NW 9 13 5 7 1018.2 1019.0 0.0
11/06:30pm 5.4 2.8 3.1 85 1.0 NW 6 7 3 4 1017.9 1018.6 0.0
11/06:00pm 5.8 3.5 2.8 81 1.3 NW 4 7 2 4 1017.7 1018.4 0.0
11/05:30pm 7.3 4.7 3.2 75 1.8 NW 6 11 3 6 1017.5 1018.2 0.0
11/05:00pm 9.6 6.6 4.0 68 2.6 NW 9 13 5 7 1017.2 1018.0 0.0
11/04:30pm 11.1 8.8 4.6 64 3.1 NW 6 11 3 6 1016.9 1017.7 0.0
11/04:00pm 11.2 8.7 4.7 64 3.1 NNW 7 13 4 7 1017.0 1017.8 0.0
11/03:30pm 11.4 8.5 4.4 62 3.3 NNW 9 17 5 9 1017.4 1018.1 0.0
11/03:00pm 11.8 8.9 4.8 62 3.3 NNW 9 17 5 9 1017.6 1018.3 0.0
11/02:30pm 11.6 8.7 4.6 62 3.3 NNW 9 17 5 9 1017.7 1018.4 0.0
11/02:00pm 10.8 8.3 4.5 65 2.9 NNW 7 15 4 8 1017.8 1018.5 0.0
11/01:30pm 10.7 7.8 4.6 66 2.9 NW 9 17 5 9 1018.2 1019.0 0.0
11/01:00pm 10.3 6.5 4.0 65 2.9 NW 13 22 7 12 1018.5 1019.3 0.0
11/12:30pm 10.3 7.8 4.5 67 2.7 N 7 22 4 12 1019.1 1019.8 0.0
11/12:00pm 10.3 7.7 4.0 65 2.9 NNW 7 17 4 9 1019.7 1020.5 0.0
11/11:30am 9.6 7.0 4.4 70 2.4 NNW 7 17 4 9 1020.2 1021.0 0.0
11/11:00am 8.8 5.7 3.6 70 2.3 NNW 9 17 5 9 1020.7 1021.5 0.0
11/10:30am 8.7 6.0 3.7 71 2.3 NNW 7 15 4 8 1021.2 1022.0 0.0
11/10:00am 7.7 5.1 3.0 72 2.1 N 6 9 3 5 1021.5 1022.3 0.0
11/09:30am 7.3 5.1 3.4 76 1.7 NNW 4 9 2 5 1021.3 1022.1 0.0
11/09:00am 6.3 4.0 2.9 79 1.5 NW 4 6 2 3 1021.4 1022.2 0.0
11/08:30am 5.4 2.7 2.9 84 1.1 NW 6 7 3 4 1021.4 1022.2 0.0
11/08:00am 4.7 3.1 2.7 87 0.8 CALM 0 0 0 0 1021.3 1022.1 0.0
11/07:30am 3.8 2.1 1.8 87 0.8 CALM 0 0 0 0 1021.2 1022.0 0.0
11/07:00am 3.6 1.5 1.6 87 0.8 NNW 2 4 1 2 1021.1 1021.9 0.0
11/06:30am 3.5 1.0 1.7 88 0.7 NW 4 6 2 3 1021.2 1022.0 0.0
11/06:00am 3.0 1.2 1.4 89 0.6 CALM 0 2 0 1 1021.1 1021.9 0.0
11/05:30am 2.3 -0.3 0.7 89 0.6 NW 4 6 2 3 1020.9 1021.7 0.0
11/05:00am 1.7 -0.4 -1.0 82 1.0 CALM 0 0 0 0 1020.6 1021.4 0.0
11/04:30am 3.9 1.7 0.9 81 1.2 ENE 2 4 1 2 1020.6 1021.4 0.0
11/04:00am 4.2 1.8 0.0 74 1.7 SW 2 6 1 3 1020.4 1021.2 0.0
11/03:30am 5.7 2.8 1.6 75 1.7 WNW 6 7 3 4 1020.9 1021.7 0.0
11/03:00am 5.9 3.1 1.8 75 1.7 SW 6 7 3 4 1021.1 1021.9 0.0
11/02:30am 6.1 3.0 1.6 73 1.9 WSW 7 11 4 6 1021.4 1022.2 0.0
11/02:00am 6.6 4.5 1.9 72 2.0 WSW 2 9 1 5 1021.6 1022.4 0.0
11/01:30am 5.9 2.8 1.6 74 1.8 WSW 7 9 4 5 1021.7 1022.5 0.0
11/01:00am 5.9 2.8 1.2 72 1.9 WSW 7 11 4 6 1021.8 1022.7 0.0
11/12:30am 6.0 2.8 1.0 70 2.1 WSW 7 11 4 6 1021.5 1022.3 0.0
11/12:00am 6.0 2.5 1.0 70 2.1 WSW 9 11 5 6 1021.5 1022.3 0.0
 
Date/Time
EST
Temp
°C
App
Temp
°C
Dew
Point
°C
Rel
Hum
%
Delta-T
°C
Wind Press
QNH
hPa
Press
MSL
hPa
Rain since
9am
mm
Dir  Spd
km/h
Gust
km/h
Spd
kts
Gust
kts
10/11:30pm 6.2 3.6 0.9 69 2.2 SW 4 7 2 4 1021.3 1022.1 0.0
10/11:00pm 6.2 3.0 0.5 67 2.3 SW 7 11 4 6 1021.5 1022.3 0.0
10/10:30pm 6.4 2.8 0.5 66 2.4 SSW 9 15 5 8 1021.7 1022.5 0.0
10/10:00pm 6.3 2.7 0.8 68 2.3 SSW 9 13 5 7 1021.7 1022.5 0.0
10/09:30pm 6.3 3.2 1.4 71 2.0 SSE 7 9 4 5 1021.8 1022.7 0.0
10/09:00pm 6.5 3.0 1.2 69 2.2 SSW 9 11 5 6 1022.0 1022.9 0.0
10/08:30pm 6.7 2.8 1.2 68 2.3 S 11 15 6 8 1022.3 1023.1 0.0
10/08:00pm 6.6 2.4 1.5 70 2.1 S 13 17 7 9 1022.3 1023.1 0.0
10/07:30pm 6.8 2.9 1.3 68 2.3 S 11 17 6 9 1022.2 1023.0 0.0
10/07:00pm 6.8 3.1 2.1 72 2.0 SSE 11 17 6 9 1022.0 1022.9 0.0
10/06:30pm 7.0 2.4 1.5 68 2.3 SSE 15 20 8 11 1021.7 1022.5 0.0
10/06:00pm 7.0 2.4 1.3 67 2.4 S 15 22 8 12 1021.4 1022.2 0.0
10/05:30pm 7.4 3.2 1.7 67 2.4 SSE 13 20 7 11 1021.2 1022.0 0.0
10/05:00pm 7.5 1.9 0.9 63 2.7 SSE 20 32 11 17 1020.7 1021.5 0.0
10/04:30pm 7.8 2.2 1.4 64 2.7 SSE 20 28 11 15 1020.7 1021.5 0.0
10/04:00pm 8.0 2.7 1.6 64 2.7 SSE 19 28 10 15 1020.2 1021.0 0.0
10/03:30pm 8.1 2.0 2.8 69 2.3 S 24 32 13 17 1020.1 1020.9 0.0
10/03:00pm 8.3 2.7 3.6 72 2.1 S 22 32 12 17 1020.2 1021.0 0.0
10/02:30pm 8.8 2.8 3.2 68 2.5 S 24 32 13 17 1020.1 1020.9 0.0
10/02:00pm 8.6 2.6 3.4 70 2.3 S 24 32 13 17 1020.2 1021.0 0.0
10/01:30pm 9.2 3.6 3.2 66 2.7 S 22 32 12 17 1020.2 1021.0 0.0
10/01:00pm 8.9 1.8 3.7 70 2.3 S 30 43 16 23 1020.3 1021.1 0.0
10/12:30pm 8.5 2.3 4.1 74 2.0 S 26 35 14 19 1020.6 1021.4 0.0
10/12:00pm 7.6 1.6 3.3 74 1.9 S 24 30 13 16 1021.1 1021.9 0.0
10/11:30am 7.8 1.1 3.7 75 1.8 SSE 28 37 15 20 1021.0 1021.8 0.0
10/11:00am 7.7 1.5 4.1 78 1.6 S 26 35 14 19 1021.0 1021.8 0.0
10/10:30am 7.3 -0.2 3.5 77 1.7 S 32 43 17 23 1020.9 1021.7 0.0
10/10:00am 7.2 0.1 3.6 78 1.6 S 30 39 16 21 1020.7 1021.5 0.0
10/09:30am 7.4 1.2 4.2 80 1.4 S 26 35 14 19 1020.4 1021.2 0.0
10/09:00am 6.7 0.3 3.3 79 1.5 S 26 35 14 19 1019.9 1020.7 31.0
10/08:30am 6.4 0.1 3.6 82 1.2 S 26 37 14 20 1019.7 1020.5 31.0
10/08:00am 6.1 1.7 4.6 90 0.7 S 17 20 9 11 1019.3 1020.1 31.0
10/07:30am 5.9 0.5 4.4 90 0.7 S 22 32 12 17 1019.0 1019.7 31.0
10/07:00am 6.1 -0.5 4.4 89 0.8 S 28 39 15 21 1018.3 1019.1 31.0
10/06:57am 6.1 0.0 4.6 90 0.7 S 26 39 14 21 1018.2 1019.0 31.0
10/06:41am 6.2 0.9 4.8 91 0.6 S 22 30 12 16 1017.9 1018.6 31.0
10/06:30am 6.3 0.6 4.8 90 0.7 S 24 32 13 17 1017.8 1018.5 30.8
10/06:00am 6.4 -0.5 4.7 89 0.8 SSE 30 39 16 21 1017.2 1018.0 30.8
10/05:39am 6.3 -0.2 4.6 89 0.8 SSE 28 37 15 20 1017.1 1017.9 30.6
10/05:30am 6.4 -0.1 4.9 90 0.7 SSE 28 43 15 23 1016.9 1017.7 30.4
10/05:25am 6.5 0.4 5.0 90 0.7 SSE 26 43 14 23 1016.8 1017.6 30.4
10/05:00am 6.8 0.8 5.1 89 0.8 SSE 26 35 14 19 1016.7 1017.5 30.2
10/04:30am 7.2 0.6 4.3 82 1.3 SSE 28 44 15 24 1016.5 1017.2 30.2
10/04:00am 7.2 0.9 3.8 79 1.5 SSE 26 39 14 21 1016.3 1017.0 30.2
10/03:30am 6.9 0.6 3.7 80 1.4 SSE 26 35 14 19 1016.2 1016.9 30.2
10/03:00am 6.8 -0.2 3.9 82 1.3 SSE 30 41 16 22 1016.0 1016.7 30.2
10/02:30am 6.9 -0.6 4.7 86 1.0 S 33 46 18 25 1015.6 1016.4 30.2
10/02:20am 7.0 0.6 5.2 88 0.8 SSE 28 46 15 25 1015.6 1016.4 30.2
10/02:10am 6.8 0.4 5.1 89 0.8 SSE 28 44 15 24 1015.9 1016.6 30.0
10/02:00am 7.0 1.4 5.5 90 0.7 SSE 24 41 13 22 1015.6 1016.4 29.6
10/01:57am 7.0 1.0 5.5 90 0.7 SSE 26 41 14 22 1015.8 1016.5 29.6
10/01:30am 7.4 1.4 5.4 87 0.9 SSE 26 37 14 20 1015.8 1016.5 29.0
10/01:03am 7.3 0.5 5.1 86 1.0 SSE 30 50 16 27 1015.3 1016.0 28.8
10/01:00am 7.5 0.3 5.1 85 1.1 SSE 32 50 17 27 1015.2 1015.9 28.6
10/12:37am 7.8 1.4 5.4 85 1.1 SSE 28 50 15 27 1015.3 1016.0 28.4
10/12:30am 7.5 1.5 5.1 85 1.1 SSE 26 43 14 23 1015.3 1016.0 28.2
10/12:00am 7.6 -0.2 4.7 82 1.3 SSE 35 57 19 31 1015.1 1015.8 28.2
 
Date/Time
EST
Temp
°C
App
Temp
°C
Dew
Point
°C
Rel
Hum
%
Delta-T
°C
Wind Press
QNH
hPa
Press
MSL
hPa
Rain since
9am
mm
Dir  Spd
km/h
Gust
km/h
Spd
kts
Gust
kts
09/11:54pm 8.1 1.4 5.4 83 1.3 SSE 30 54 16 29 1015.1 1015.8 28.0
09/11:30pm 8.2 0.9 5.5 83 1.3 SSE 33 52 18 28 1014.9 1015.6 28.0
09/11:09pm 8.1 0.1 5.6 84 1.2 SSE 37 56 20 30 1014.7 1015.4 27.8
09/11:00pm 7.9 -0.5 5.7 86 1.0 SSE 39 56 21 30 1014.6 1015.3 27.8
09/10:30pm 8.0 0.0 5.5 84 1.2 SSE 37 57 20 31 1014.3 1015.0 26.8
09/10:05pm 8.2 0.2 5.8 85 1.1 SSE 37 63 20 34 1014.4 1015.1 26.8
09/10:00pm 8.0 0.5 6.1 88 0.9 SSE 35 52 19 28 1014.4 1015.1 26.6
09/09:52pm 7.7 0.6 6.2 90 0.7 SSE 33 48 18 26 1014.3 1015.0 26.6
09/09:34pm 7.7 0.2 6.3 91 0.7 SSE 35 56 19 30 1014.4 1015.1 26.2
09/09:33pm 7.6 0.5 6.2 91 0.7 SSE 33 48 18 26 1014.4 1015.1 26.2
09/09:30pm 7.6 0.6 6.2 91 0.7 SSE 32 46 17 25 1014.4 1015.1 26.0
09/09:00pm 7.7 0.6 6.2 90 0.7 SSE 33 54 18 29 1014.0 1014.7 24.4
09/08:30pm 7.8 0.2 5.9 88 0.9 SSE 35 56 19 30 1014.0 1014.7 22.6
09/08:00pm 7.4 -0.2 5.7 89 0.8 SSE 35 56 19 30 1013.7 1014.4 21.4

Latest Capital City Observations: Canberra | Sydney | Melbourne | Brisbane | Adelaide | Perth | Hobart | Darwin

Other formats

Comma delimited format used in spreadsheet applications
http://www.bom.gov.au/fwo/IDN60903/IDN60903.94927.axf

JavaScript Object Notation format (JSON) in row-major order
http://www.bom.gov.au/fwo/IDN60903/IDN60903.94927.json

Data quality

Most of these data are generated automatically and are frequently updated. Quality checks on data are not normally performed. It is possible for incorrect values to appear. Refer to information at About Latest Weather Observations and please check the disclaimer before using these data.